International Virtual Aviation Organisation

Eastern Europe and Northern Asia MCD

 

Карточка аэропорта USHH

Внимание!
Информация на этой странице в стадии наполнения.
Если вы не увидели какой-то информации, или заметили неточность - пожалуйста сообщите нам!
Спасибо!
Команда RU-STAFF
Название аэропортаХанты-Мансийск
Название аэропорта (англ.)Khanty-Mansiysk
Превышение141 ft. (43 m.)
Координаты61°1.7039999999999', 69°5.1599999999999'
Высота перехода800m
Эшелон переходаFL050
Коды ответчика5150-5177
Зона ОрВДТюмень РПИ (USTV)
Данные METARUSHH 110400Z 13005MPS 9999 -SHRA SCT004CB 02/02 Q1029 R06/290050 TEMPO 1000 SHRA BR BKN001 OVC011CB
Проноз погоды (TAF)USHH 110201Z 1102/1203 16003G10MPS 5000 -SHRA BKN007 BKN016CB TEMPO 1102/1115 1200 SHRA BR BKN002 OVC011CB BECMG 1106/1108 20005G14MPS TEMPO 1115/1203 0500 +SHRA FG VV003 BECMG 1116/1118 27003G12MPS
NOTAMshow/hide NOTAM
AWOS   TABLE

Информация о ВПП

ВПП Длина ВПП (м.) Покрытие Курс ВПП Частота ILS
062800Асфальтобетон58111.9
242800Асфальтобетон238110.1

Диспетчерские позиции

Позывной Наименование органа УВД Частота
USHH_TWRХантым-Вышка118.1
USHH_R_APPХантым-Круг120.4



Спутниковое изображение